createdAt,value
2016-03-07T00:01:45.797Z,996.02
2016-03-07T00:04:57.433Z,996.12
2016-03-07T00:08:06.269Z,995.98
2016-03-07T00:11:16.277Z,996.02
2016-03-07T00:14:33.051Z,996.06
2016-03-07T00:17:35.637Z,995.96
2016-03-07T00:20:45.114Z,995.84
2016-03-07T00:23:56.546Z,995.96
2016-03-07T00:27:07.616Z,995.8
2016-03-07T00:30:16.594Z,995.82
2016-03-07T00:33:32.055Z,995.82
2016-03-07T00:36:34.829Z,995.88
2016-03-07T00:39:43.274Z,995.82
2016-03-07T00:42:54.879Z,995.88
2016-03-07T00:46:04.574Z,995.92
2016-03-07T00:49:16.301Z,995.94
2016-03-07T00:52:31.747Z,996
2016-03-07T00:55:34.317Z,995.94
2016-03-07T00:58:45.716Z,995.92
2016-03-07T01:01:57.414Z,995.88
2016-03-07T01:05:08.922Z,995.92
2016-03-07T01:08:20.525Z,995.88
2016-03-07T01:11:34.407Z,995.74
2016-03-07T01:14:36.962Z,995.78
2016-03-07T01:17:48.455Z,995.88
2016-03-07T01:21:00.028Z,995.76
2016-03-07T01:24:11.661Z,995.86
2016-03-07T01:27:26.967Z,995.8
2016-03-07T01:30:33.428Z,995.82
2016-03-07T01:33:36.154Z,995.92
2016-03-07T01:36:47.772Z,995.88
2016-03-07T01:39:56.282Z,995.9
2016-03-07T01:43:07.868Z,995.82
2016-03-07T01:46:19.345Z,995.82
2016-03-07T01:49:31.931Z,995.8
2016-03-07T01:52:34.534Z,995.78
2016-03-07T01:55:45.995Z,995.84
2016-03-07T01:58:57.396Z,995.92
2016-03-07T02:02:09.029Z,995.86
2016-03-07T02:05:18.974Z,995.88
2016-03-07T02:08:34.404Z,995.76
2016-03-07T02:11:37.241Z,995.72
2016-03-07T02:14:48.437Z,995.74
2016-03-07T02:18:00.103Z,995.8
2016-03-07T02:21:11.596Z,995.74
2016-03-07T02:24:27.214Z,995.78
2016-03-07T02:27:33.925Z,995.72
2016-03-07T02:30:36.667Z,995.7
2016-03-07T02:33:48.409Z,995.74
2016-03-07T02:36:56.808Z,995.66
2016-03-07T02:40:06.632Z,995.72
2016-03-07T02:43:15.905Z,995.66
2016-03-07T02:46:29.538Z,995.62
2016-03-07T02:49:32.234Z,995.6
2016-03-07T02:52:44.039Z,995.56
2016-03-07T02:55:55.703Z,995.54
2016-03-07T02:59:04.792Z,995.52
2016-03-07T03:02:15.769Z,995.66
2016-03-07T03:05:29.980Z,995.66
2016-03-07T03:08:32.785Z,995.76
2016-03-07T03:11:44.761Z,995.8
2016-03-07T03:14:56.582Z,995.8
2016-03-07T03:18:08.546Z,995.82
2016-03-07T03:21:18.085Z,995.8
2016-03-07T03:24:30.484Z,995.84
2016-03-07T03:27:33.414Z,995.86
2016-03-07T03:30:45.234Z,995.88
2016-03-07T03:33:54.133Z,996.06
2016-03-07T03:37:06.253Z,996.12
2016-03-07T03:40:17.308Z,996.18
2016-03-07T03:43:33.019Z,996.14
2016-03-07T03:46:35.777Z,996.1
2016-03-07T03:49:47.535Z,996.18
2016-03-07T03:52:57.387Z,996.24
2016-03-07T03:56:06.445Z,996.18
2016-03-07T03:59:17.845Z,996.28
2016-03-07T04:02:31.852Z,996.26
2016-03-07T04:05:34.704Z,996.26
2016-03-07T04:08:46.477Z,996.3
2016-03-07T04:11:58.314Z,996.34
2016-03-07T04:15:10.028Z,996.36
2016-03-07T04:18:21.301Z,996.49
2016-03-07T04:21:32.965Z,996.38
2016-03-07T04:24:43.832Z,996.51
2016-03-07T04:27:55.528Z,996.57
2016-03-07T04:31:07.445Z,996.63
2016-03-07T04:34:19.235Z,996.71
2016-03-07T04:37:35.230Z,996.69
2016-03-07T04:40:37.901Z,996.75
2016-03-07T04:43:49.765Z,996.81
2016-03-07T04:47:01.306Z,996.75
2016-03-07T04:50:10.129Z,996.71
2016-03-07T04:53:20.512Z,996.67
2016-03-07T04:56:35.753Z,996.81
2016-03-07T04:59:38.481Z,996.79
2016-03-07T05:02:50.239Z,996.85
2016-03-07T05:05:59.613Z,997.01
2016-03-07T05:09:11.235Z,996.99
2016-03-07T05:12:20.508Z,997.05
2016-03-07T05:15:36.250Z,996.99
2016-03-07T05:18:39.196Z,997.13
2016-03-07T05:21:50.875Z,997.13
2016-03-07T05:25:00.384Z,997.19
2016-03-07T05:28:08.692Z,997.19
2016-03-07T05:31:20.433Z,997.21
2016-03-07T05:34:36.317Z,997.21
2016-03-07T05:37:39.107Z,997.29
2016-03-07T05:40:50.255Z,997.29
2016-03-07T05:43:58.248Z,997.39
2016-03-07T05:47:10.727Z,997.43
2016-03-07T05:50:22.406Z,997.43
2016-03-07T05:53:35.212Z,997.47
2016-03-07T05:56:38.033Z,997.57
2016-03-07T05:59:49.900Z,997.57
2016-03-07T06:03:01.502Z,997.67
2016-03-07T06:06:12.731Z,997.75
2016-03-07T06:09:22.380Z,997.83
2016-03-07T06:12:33.544Z,997.87
2016-03-07T06:15:43.396Z,997.81
2016-03-07T06:18:55.076Z,997.98
2016-03-07T06:22:04.853Z,997.87
2016-03-07T06:25:16.548Z,998.12
2016-03-07T06:28:32.290Z,998.02
2016-03-07T06:31:35.205Z,998
2016-03-07T06:34:46.885Z,998.02
2016-03-07T06:37:58.658Z,998.17
2016-03-07T06:41:08.013Z,998.21
2016-03-07T06:44:19.568Z,998.23
2016-03-07T06:47:32.107Z,998.34
2016-03-07T06:50:34.943Z,998.36
2016-03-07T06:53:46.562Z,998.46
2016-03-07T06:56:58.569Z,998.5
2016-03-07T07:00:10.265Z,998.54
2016-03-07T07:03:19.008Z,998.6
2016-03-07T07:06:33.499Z,998.56
2016-03-07T07:09:36.390Z,998.56
2016-03-07T07:12:48.253Z,998.5
2016-03-07T07:16:00.135Z,998.52
2016-03-07T07:19:09.539Z,998.54
2016-03-07T07:22:21.421Z,998.48
2016-03-07T07:25:33.273Z,998.58
2016-03-07T07:28:44.953Z,998.56
2016-03-07T07:31:56.851Z,998.56
2016-03-07T07:35:08.800Z,998.52
2016-03-07T07:38:20.964Z,998.38
2016-03-07T07:41:33.003Z,998.42
2016-03-07T07:44:45.043Z,998.52
2016-03-07T07:47:54.114Z,998.4
2016-03-07T07:51:03.262Z,998.42
2016-03-07T07:54:15.256Z,998.42
2016-03-07T07:57:31.218Z,998.58
2016-03-07T08:00:34.351Z,998.64
2016-03-07T08:03:44.890Z,998.78
2016-03-07T08:06:53.820Z,998.82
2016-03-07T08:10:05.453Z,998.86
2016-03-07T08:13:17.683Z,998.78
2016-03-07T08:16:33.832Z,998.78
2016-03-07T08:19:37.355Z,998.7
2016-03-07T08:22:49.785Z,998.64
2016-03-07T08:26:02.012Z,998.72
2016-03-07T08:29:14.195Z,998.66
2016-03-07T08:32:30.172Z,998.8
2016-03-07T08:35:33.242Z,998.4
2016-03-07T08:38:43.266Z,998.32
2016-03-07T08:41:52.962Z,997.85
2016-03-07T08:45:05.532Z,998.3
2016-03-07T08:48:17.543Z,998.3
2016-03-07T08:51:33.691Z,998.38
2016-03-07T08:54:36.996Z,998.54
2016-03-07T08:57:48.957Z,998.56
2016-03-07T09:00:57.778Z,998.66
2016-03-07T09:04:09.383Z,998.7
2016-03-07T09:07:21.453Z,998.78
2016-03-07T09:10:33.242Z,998.76
2016-03-07T09:13:45.078Z,998.66
2016-03-07T09:16:54.524Z,998.7
2016-03-07T09:20:03.658Z,998.72
2016-03-07T09:23:13.810Z,998.48
2016-03-07T09:26:29.926Z,996.89
2016-03-07T09:29:34.246Z,998.02
2016-03-07T09:32:47.036Z,998.21
2016-03-07T09:35:56.779Z,998.23
2016-03-07T09:39:07.145Z,998.26
2016-03-07T09:42:17.470Z,997.59
2016-03-07T09:45:34.619Z,996.91
2016-03-07T09:48:39.251Z,997.88
2016-03-07T09:51:51.790Z,998.26
2016-03-07T09:55:03.924Z,997.27
2016-03-07T09:58:15.904Z,998.44
2016-03-07T10:01:30.943Z,998.5
2016-03-07T10:04:34.481Z,998.68
2016-03-07T10:07:46.803Z,998.76
2016-03-07T10:10:56.857Z,998.76
2016-03-07T10:14:09.444Z,998.62
2016-03-07T10:17:20.409Z,998.64
2016-03-07T10:20:34.543Z,998.74
2016-03-07T10:23:36.893Z,998.84
2016-03-07T10:26:50.465Z,998.7
2016-03-07T10:30:03.051Z,998.48
2016-03-07T10:33:13.093Z,998.76
2016-03-07T10:36:29.710Z,998.64
2016-03-07T10:39:33.516Z,998.7
2016-03-07T10:42:46.070Z,998.76
2016-03-07T10:45:56.360Z,998.8
2016-03-07T10:49:08.290Z,998.92
2016-03-07T10:52:20.691Z,998.9
2016-03-07T10:55:37.011Z,999
2016-03-07T10:58:39.613Z,998.98
2016-03-07T11:01:53.317Z,998.94
2016-03-07T11:05:05.839Z,998.88
2016-03-07T11:08:15.941Z,999.06
2016-03-07T11:11:32.233Z,999.14
2016-03-07T11:14:36.007Z,999
2016-03-07T11:17:48.062Z,999.04
2016-03-07T11:21:00.023Z,999.2
2016-03-07T11:24:09.641Z,999.14
2016-03-07T11:27:21.714Z,999.28
2016-03-07T11:30:33.800Z,999.14
2016-03-07T11:33:42.980Z,999.36
2016-03-07T11:36:55.144Z,999.36
2016-03-07T11:40:07.433Z,999.36
2016-03-07T11:43:19.616Z,999.44
2016-03-07T11:46:33.656Z,999.4
2016-03-07T11:49:37.226Z,999.34
2016-03-07T11:52:46.673Z,999.3
2016-03-07T11:55:58.883Z,999.3
2016-03-07T11:59:11.172Z,999.18
2016-03-07T12:02:23.480Z,999.24
2016-03-07T12:05:35.894Z,999.18
2016-03-07T12:08:47.621Z,999.32
2016-03-07T12:11:57.926Z,999.44
2016-03-07T12:15:10.152Z,999.44
2016-03-07T12:18:20.523Z,999.44
2016-03-07T12:21:35.203Z,999.52
2016-03-07T12:24:38.539Z,999.46
2016-03-07T12:27:50.766Z,999.46
2016-03-07T12:31:01.681Z,999.4
2016-03-07T12:34:12.078Z,999.4
2016-03-07T12:37:22.902Z,999.42
2016-03-07T12:40:35.144Z,999.36
2016-03-07T12:43:44.355Z,999.34
2016-03-07T12:46:53.285Z,999.4
2016-03-07T12:50:05.763Z,999.46
2016-03-07T12:53:16.177Z,999.42
2016-03-07T12:56:32.390Z,999.4
2016-03-07T12:59:35.836Z,999.48
2016-03-07T13:02:44.860Z,999.44
2016-03-07T13:05:57.086Z,999.48
2016-03-07T13:09:07.219Z,999.5
2016-03-07T13:12:19.680Z,999.52
2016-03-07T13:15:33.348Z,999.54
2016-03-07T13:18:36.809Z,999.5
2016-03-07T13:21:49.004Z,999.58
2016-03-07T13:25:01.295Z,999.58
2016-03-07T13:28:11.145Z,999.54
2016-03-07T13:31:22.939Z,999.6
2016-03-07T13:34:37.508Z,999.6
2016-03-07T13:37:40.830Z,999.64
2016-03-07T13:40:53.180Z,999.75
2016-03-07T13:44:05.517Z,999.69
2016-03-07T13:47:17.899Z,999.64
2016-03-07T13:50:34.443Z,999.77
2016-03-07T13:53:37.935Z,999.75
2016-03-07T13:56:50.161Z,999.89
2016-03-07T14:00:00.591Z,999.77
2016-03-07T14:03:11.255Z,999.79
2016-03-07T14:06:23.658Z,999.95
2016-03-07T14:09:35.727Z,999.85
2016-03-07T14:12:48.329Z,999.85
2016-03-07T14:16:00.963Z,999.89
2016-03-07T14:19:11.126Z,999.95
2016-03-07T14:22:23.575Z,1000.01
2016-03-07T14:25:36.146Z,1000.01
2016-03-07T14:28:46.356Z,1000.07
2016-03-07T14:31:55.006Z,999.99
2016-03-07T14:35:07.217Z,999.99
2016-03-07T14:38:19.599Z,1000.13
2016-03-07T14:41:35.719Z,1000.19
2016-03-07T14:44:39.135Z,1000.19
2016-03-07T14:47:49.642Z,1000.29
2016-03-07T14:51:00.807Z,1000.39
2016-03-07T14:54:14.502Z,1000.39
2016-03-07T14:57:23.622Z,1000.27
2016-03-07T15:00:36.849Z,1000.49
2016-03-07T15:03:40.139Z,1000.39
2016-03-07T15:06:52.364Z,1000.45
2016-03-07T15:10:01.967Z,1000.53
2016-03-07T15:13:11.850Z,1000.57
2016-03-07T15:16:24.173Z,1000.59
2016-03-07T15:19:36.275Z,1000.53
2016-03-07T15:22:45.518Z,1000.63
2016-03-07T15:25:56.479Z,1000.69
2016-03-07T15:29:06.690Z,1000.59
2016-03-07T15:32:18.979Z,1000.63
2016-03-07T15:35:33.724Z,1000.63
2016-03-07T15:38:36.997Z,1000.79
2016-03-07T15:41:49.146Z,1000.83
2016-03-07T15:45:01.467Z,1000.85
2016-03-07T15:48:12.366Z,1000.85
2016-03-07T15:51:22.593Z,1000.89
2016-03-07T15:54:34.729Z,1000.85
2016-03-07T15:57:45.596Z,1000.87
2016-03-07T16:00:55.745Z,1000.91
2016-03-07T16:04:07.854Z,1000.91
2016-03-07T16:07:18.427Z,1001.01
2016-03-07T16:10:34.184Z,1001.05
2016-03-07T16:13:37.553Z,1000.95
2016-03-07T16:16:49.867Z,1001.09
2016-03-07T16:19:59.231Z,1001.17
2016-03-07T16:23:11.502Z,1001.17
2016-03-07T16:26:20.854Z,1001.19
2016-03-07T16:29:33.677Z,1001.27
2016-03-07T16:32:36.842Z,1001.35
2016-03-07T16:35:46.614Z,1001.33
2016-03-07T16:38:57.248Z,1001.37
2016-03-07T16:42:09.569Z,1001.43
2016-03-07T16:45:21.686Z,1001.41
2016-03-07T16:48:38.056Z,1001.52
2016-03-07T16:51:41.127Z,1001.56
2016-03-07T16:54:53.198Z,1001.62
2016-03-07T16:58:03.909Z,1001.66
2016-03-07T17:01:14.136Z,1001.76
2016-03-07T17:04:29.912Z,1001.76
2016-03-07T17:07:36.998Z,1001.84
2016-03-07T17:10:40.069Z,1001.86
2016-03-07T17:13:48.546Z,1001.9
2016-03-07T17:16:57.835Z,1001.88
2016-03-07T17:20:06.280Z,1001.98
2016-03-07T17:23:17.538Z,1002.18
2016-03-07T17:26:31.237Z,1001.98
2016-03-07T17:29:38.135Z,1002
2016-03-07T17:32:40.972Z,1002.08
2016-03-07T17:35:52.870Z,1002.18
2016-03-07T17:39:01.831Z,1002.22
2016-03-07T17:42:13.480Z,1002.18
2016-03-07T17:45:29.132Z,1002.22
2016-03-07T17:48:36.061Z,1002.32
2016-03-07T17:51:38.726Z,1002.3
2016-03-07T17:54:50.390Z,1002.32
2016-03-07T17:58:02.164Z,1002.4
2016-03-07T18:01:10.375Z,1002.34
2016-03-07T18:04:21.836Z,1002.24
2016-03-07T18:07:37.082Z,1002.44
2016-03-07T18:10:39.590Z,1002.4
2016-03-07T18:13:51.192Z,1002.54
2016-03-07T18:17:00.855Z,1002.5
2016-03-07T18:20:11.269Z,1002.54
2016-03-07T18:23:24.199Z,1002.54
2016-03-07T18:26:35.851Z,1002.54
2016-03-07T18:29:47.515Z,1002.6
2016-03-07T18:32:58.976Z,1002.62
2016-03-07T18:36:09.032Z,1002.68
2016-03-07T18:39:19.789Z,1002.64
2016-03-07T18:42:35.207Z,1002.62
2016-03-07T18:45:37.903Z,1002.68
2016-03-07T18:48:49.223Z,1002.68
2016-03-07T18:51:58.730Z,1002.68
2016-03-07T18:55:08.145Z,1002.72
2016-03-07T18:58:19.935Z,1002.8
2016-03-07T19:01:33.679Z,1002.76
2016-03-07T19:04:36.203Z,1002.84
2016-03-07T19:07:47.637Z,1002.88
2016-03-07T19:10:59.114Z,1002.84
2016-03-07T19:14:07.888Z,1002.99
2016-03-07T19:17:19.551Z,1002.99
2016-03-07T19:20:35.313Z,1002.86
2016-03-07T19:23:37.868Z,1002.93
2016-03-07T19:26:46.767Z,1002.95
2016-03-07T19:29:57.822Z,1002.91
2016-03-07T19:33:12.985Z,1002.99
2016-03-07T19:36:18.915Z,1002.82
2016-03-07T19:39:32.083Z,1002.95
2016-03-07T19:42:38.669Z,1003.07
2016-03-07T19:45:41.287Z,1003.05
2016-03-07T19:48:49.701Z,1003.07
2016-03-07T19:51:58.692Z,1003.11
2016-03-07T19:55:09.888Z,1003.09
2016-03-07T19:58:19.928Z,1003.25
2016-03-07T20:01:35.580Z,1003.23
2016-03-07T20:04:38.181Z,1003.15
2016-03-07T20:07:47.877Z,1003.17
2016-03-07T20:10:59.306Z,1003.25
2016-03-07T20:14:10.940Z,1003.17
2016-03-07T20:17:20.260Z,1003.3
2016-03-07T20:20:33.240Z,1003.39
2016-03-07T20:23:39.763Z,1003.39
2016-03-07T20:26:42.286Z,1003.37
2016-03-07T20:29:53.623Z,1003.39
2016-03-07T20:33:05.616Z,1003.35
2016-03-07T20:36:16.858Z,1003.41
2016-03-07T20:39:32.588Z,1003.35
2016-03-07T20:42:38.986Z,1003.45
2016-03-07T20:45:42.088Z,1003.51
2016-03-07T20:48:52.096Z,1003.51
2016-03-07T20:52:00.464Z,1003.49
2016-03-07T20:55:09.441Z,1003.57
2016-03-07T20:58:17.809Z,1003.67
2016-03-07T21:01:33.100Z,1003.69
2016-03-07T21:04:39.530Z,1003.65
2016-03-07T21:07:42.163Z,1003.83
2016-03-07T21:10:53.702Z,1003.73
2016-03-07T21:14:05.241Z,1003.87
2016-03-07T21:17:14.952Z,1003.77
2016-03-07T21:20:26.492Z,1003.85
2016-03-07T21:23:41.801Z,1003.91
2016-03-07T21:26:44.448Z,1003.77
2016-03-07T21:29:55.831Z,1003.89
2016-03-07T21:33:07.309Z,1004.05
2016-03-07T21:36:14.739Z,1003.95
2016-03-07T21:39:27.340Z,1003.89
2016-03-07T21:42:42.757Z,1004.09
2016-03-07T21:45:45.405Z,1003.99
2016-03-07T21:48:52.820Z,1004.05
2016-03-07T21:52:01.484Z,1004.05
2016-03-07T21:55:12.837Z,1003.99
2016-03-07T21:58:24.423Z,1004.05
2016-03-07T22:01:39.011Z,1004.01
2016-03-07T22:04:41.551Z,1004.01
2016-03-07T22:07:52.996Z,1004.01
2016-03-07T22:11:04.504Z,1004.03
2016-03-07T22:14:14.810Z,1004.13
2016-03-07T22:17:27.489Z,1004.11
2016-03-07T22:20:42.864Z,1004.19
2016-03-07T22:23:45.498Z,1004.27
2016-03-07T22:26:57.005Z,1004.25
2016-03-07T22:30:08.591Z,1004.25
2016-03-07T22:33:20.208Z,1004.29
2016-03-07T22:36:31.220Z,1004.23
2016-03-07T22:39:42.618Z,1004.23
2016-03-07T22:42:54.314Z,1004.27
2016-03-07T22:46:05.088Z,1004.35
2016-03-07T22:49:16.736Z,1004.37
2016-03-07T22:52:24.198Z,1004.51
2016-03-07T22:55:40.770Z,1004.51
2016-03-07T22:58:43.122Z,1004.51
2016-03-07T23:01:54.599Z,1004.59
2016-03-07T23:05:10.013Z,1004.51
2016-03-07T23:08:17.638Z,1004.65
2016-03-07T23:11:29.053Z,1004.41
2016-03-07T23:14:44.423Z,1004.57
2016-03-07T23:17:46.743Z,1004.61
2016-03-07T23:20:58.502Z,1004.53
2016-03-07T23:24:09.323Z,1004.51
2016-03-07T23:27:18.315Z,1004.59
2016-03-07T23:30:29.698Z,1004.63
2016-03-07T23:33:43.240Z,1004.69
2016-03-07T23:36:45.670Z,1004.65
2016-03-07T23:39:57.194Z,1004.69
2016-03-07T23:43:04.779Z,1004.67
2016-03-07T23:46:16.210Z,1004.69
2016-03-07T23:49:25.390Z,1004.82
2016-03-07T23:52:38.479Z,1004.82
2016-03-07T23:55:44.799Z,1004.86
2016-03-07T23:58:47.089Z,1004.96
